createdAt,value
2017-10-26T00:00:13.098Z,82.43
2017-10-26T00:02:39.613Z,82.79
2017-10-26T00:05:06.070Z,82.77
2017-10-26T00:07:33.221Z,82.93
2017-10-26T00:09:59.658Z,83.15
2017-10-26T00:12:26.091Z,83.34
2017-10-26T00:14:52.533Z,83.40
2017-10-26T00:17:18.962Z,83.27
2017-10-26T00:19:45.393Z,83.20
2017-10-26T00:22:11.837Z,83.26
2017-10-26T00:24:38.879Z,83.35
2017-10-26T00:27:05.313Z,83.24
2017-10-26T00:29:31.748Z,83.09
2017-10-26T00:31:58.182Z,82.96
2017-10-26T00:34:24.617Z,82.79
2017-10-26T00:36:51.060Z,83.10
2017-10-26T00:39:17.589Z,83.43
2017-10-26T00:41:44.638Z,83.66
2017-10-26T00:44:11.073Z,83.85
2017-10-26T00:46:37.508Z,83.90
2017-10-26T00:49:03.941Z,83.84
2017-10-26T00:51:30.377Z,83.47
2017-10-26T00:53:56.812Z,83.55
2017-10-26T00:56:23.247Z,83.71
2017-10-26T00:58:50.381Z,83.80
2017-10-26T01:01:16.832Z,83.90
2017-10-26T01:03:43.370Z,83.66
2017-10-26T01:06:09.813Z,82.98
2017-10-26T01:08:36.176Z,82.27
2017-10-26T01:11:02.571Z,82.21
2017-10-26T01:13:29.015Z,82.25
2017-10-26T01:15:56.160Z,82.54
2017-10-26T01:18:22.592Z,83.11
2017-10-26T01:20:49.011Z,83.54
2017-10-26T01:23:15.461Z,83.96
2017-10-26T01:25:41.904Z,84.32
2017-10-26T01:28:08.332Z,84.43
2017-10-26T01:30:34.765Z,84.67
2017-10-26T01:33:01.896Z,84.50
2017-10-26T01:35:28.352Z,83.87
2017-10-26T01:37:54.795Z,82.88
2017-10-26T01:40:21.332Z,82.57
2017-10-26T01:42:47.768Z,82.16
2017-10-26T01:45:14.182Z,82.34
2017-10-26T01:47:40.629Z,82.86
2017-10-26T01:50:07.780Z,83.15
2017-10-26T01:52:34.189Z,83.55
2017-10-26T01:55:00.653Z,83.14
2017-10-26T01:57:27.084Z,82.47
2017-10-26T01:59:53.519Z,81.96
2017-10-26T02:02:19.954Z,81.86
2017-10-26T02:04:46.396Z,82.28
2017-10-26T02:07:13.641Z,82.71
2017-10-26T02:09:40.085Z,82.59
2017-10-26T02:12:06.470Z,82.77
2017-10-26T02:14:32.937Z,82.63
2017-10-26T02:16:59.381Z,83.16
2017-10-26T02:19:25.917Z,83.86
2017-10-26T02:21:52.360Z,84.31
2017-10-26T02:24:19.620Z,84.19
2017-10-26T02:26:46.041Z,84.03
2017-10-26T02:29:12.476Z,84.24
2017-10-26T02:31:38.915Z,84.06
2017-10-26T02:34:05.346Z,84.32
2017-10-26T02:36:31.780Z,84.62
2017-10-26T02:38:58.152Z,84.94
2017-10-26T02:41:25.382Z,85.35
2017-10-26T02:43:51.801Z,85.76
2017-10-26T02:46:18.244Z,86.24
2017-10-26T02:48:44.679Z,86.43
2017-10-26T02:51:11.106Z,86.70
2017-10-26T02:53:37.543Z,86.65
2017-10-26T02:56:03.974Z,86.34
2017-10-26T02:58:31.063Z,86.02
2017-10-26T03:00:57.569Z,85.65
2017-10-26T03:03:24.003Z,85.55
2017-10-26T03:05:50.429Z,85.33
2017-10-26T03:08:16.864Z,85.18
2017-10-26T03:10:43.310Z,85.04
2017-10-26T03:13:09.731Z,85.27
2017-10-26T03:15:36.886Z,85.52
2017-10-26T03:18:03.323Z,86.03
2017-10-26T03:20:29.755Z,86.21
2017-10-26T03:22:56.194Z,85.97
2017-10-26T03:25:22.608Z,85.55
2017-10-26T03:27:49.059Z,85.10
2017-10-26T03:30:15.498Z,84.55
2017-10-26T03:32:42.655Z,84.51
2017-10-26T03:35:09.081Z,84.10
2017-10-26T03:37:35.556Z,83.12
2017-10-26T03:40:01.911Z,81.89
2017-10-26T03:42:28.384Z,81.81
2017-10-26T03:44:54.828Z,81.85
2017-10-26T03:47:21.359Z,82.24
2017-10-26T03:49:48.508Z,82.32
2017-10-26T03:52:14.841Z,82.40
2017-10-26T03:54:41.283Z,82.33
2017-10-26T03:57:07.709Z,82.62
2017-10-26T03:59:34.096Z,82.94
2017-10-26T04:02:00.565Z,83.72
2017-10-26T04:04:27.014Z,83.92
2017-10-26T04:06:54.167Z,84.26
2017-10-26T04:09:20.609Z,84.37
2017-10-26T04:11:47.044Z,84.66
2017-10-26T04:14:13.699Z,85.07
2017-10-26T04:16:40.111Z,85.46
2017-10-26T04:19:06.553Z,85.76
2017-10-26T04:21:32.978Z,85.96
2017-10-26T04:24:00.141Z,86.03
2017-10-26T04:26:26.539Z,85.92
2017-10-26T04:28:52.977Z,85.88
2017-10-26T04:31:19.421Z,86.06
2017-10-26T04:33:45.877Z,85.91
2017-10-26T04:36:12.312Z,85.51
2017-10-26T04:38:38.738Z,85.00
2017-10-26T04:41:05.174Z,84.76
2017-10-26T04:43:31.608Z,84.96
2017-10-26T04:45:58.042Z,85.10
2017-10-26T04:48:24.478Z,85.35
2017-10-26T04:50:50.920Z,85.49
2017-10-26T04:53:17.356Z,85.70
2017-10-26T04:55:43.797Z,85.99
2017-10-26T04:58:10.159Z,86.31
2017-10-26T05:00:36.659Z,86.56
2017-10-26T05:03:03.094Z,86.86
2017-10-26T05:05:29.716Z,86.82
2017-10-26T05:07:56.161Z,86.83
2017-10-26T05:10:22.615Z,86.84
2017-10-26T05:12:49.140Z,86.86
2017-10-26T05:15:15.570Z,86.81
2017-10-26T05:17:42.145Z,86.78
2017-10-26T05:20:08.538Z,86.80
2017-10-26T05:22:35.279Z,86.68
2017-10-26T05:25:01.715Z,86.57
2017-10-26T05:27:28.157Z,86.50
2017-10-26T05:29:54.596Z,86.56
2017-10-26T05:32:21.847Z,86.45
2017-10-26T05:34:48.272Z,86.22
2017-10-26T05:37:14.820Z,86.02
2017-10-26T05:39:41.956Z,85.71
2017-10-26T05:42:08.398Z,85.48
2017-10-26T05:44:35.254Z,85.00
2017-10-26T05:47:01.801Z,84.52
2017-10-26T05:49:28.244Z,84.40
2017-10-26T05:51:54.669Z,84.31
2017-10-26T05:54:21.110Z,83.98
2017-10-26T05:56:47.548Z,83.73
2017-10-26T05:59:13.974Z,83.33
2017-10-26T06:01:40.417Z,82.96
2017-10-26T06:04:06.773Z,83.02
2017-10-26T06:06:33.176Z,82.79
2017-10-26T06:08:59.613Z,82.31
2017-10-26T06:11:26.260Z,82.09
2017-10-26T06:13:52.685Z,82.35
2017-10-26T06:16:19.129Z,82.64
2017-10-26T06:18:45.452Z,82.55
2017-10-26T06:21:12.200Z,82.06
2017-10-26T06:23:39.148Z,81.05
2017-10-26T06:26:05.575Z,80.83
2017-10-26T06:28:32.016Z,80.40
2017-10-26T06:30:58.555Z,80.08
2017-10-26T06:33:24.991Z,79.64
2017-10-26T06:35:51.420Z,79.70
2017-10-26T06:38:17.853Z,79.75
2017-10-26T06:40:44.287Z,79.53
2017-10-26T06:43:10.732Z,79.21
2017-10-26T06:45:38.163Z,78.39
2017-10-26T06:48:04.608Z,77.28
2017-10-26T06:50:31.536Z,77.24
2017-10-26T06:52:57.998Z,77.13
2017-10-26T06:55:24.565Z,76.86
2017-10-26T06:57:51.111Z,76.21
2017-10-26T07:00:17.822Z,74.96
2017-10-26T07:02:44.460Z,74.47
2017-10-26T07:05:10.994Z,74.12
2017-10-26T07:07:37.423Z,73.97
2017-10-26T07:10:03.856Z,73.47
2017-10-26T07:12:30.293Z,73.33
2017-10-26T07:14:56.746Z,72.79
2017-10-26T07:17:23.160Z,72.55
2017-10-26T07:19:49.679Z,72.20
2017-10-26T07:22:16.122Z,71.07
2017-10-26T07:24:42.572Z,71.04
2017-10-26T07:27:09.412Z,71.25
2017-10-26T07:29:35.848Z,70.45
2017-10-26T07:32:02.494Z,70.09
2017-10-26T07:34:28.929Z,69.00
2017-10-26T07:36:55.355Z,68.98
2017-10-26T07:39:21.892Z,69.00
2017-10-26T07:41:48.328Z,69.39
2017-10-26T07:44:14.763Z,69.02
2017-10-26T07:46:41.197Z,68.92
2017-10-26T07:49:07.736Z,68.60
2017-10-26T07:51:34.169Z,68.45
2017-10-26T07:54:01.395Z,68.56
2017-10-26T07:56:27.864Z,68.47
2017-10-26T07:58:54.405Z,68.27
2017-10-26T08:01:20.797Z,68.09
2017-10-26T08:03:47.264Z,68.39
2017-10-26T08:06:13.698Z,68.39
2017-10-26T08:08:40.243Z,67.50
2017-10-26T08:11:07.284Z,67.37
2017-10-26T08:13:34.781Z,66.79
2017-10-26T08:16:01.178Z,66.42
2017-10-26T08:18:27.927Z,66.13
2017-10-26T08:20:54.312Z,66.08
2017-10-26T08:23:20.788Z,65.75
2017-10-26T08:25:47.234Z,64.99
2017-10-26T08:28:13.659Z,64.65
2017-10-26T08:30:40.090Z,65.21
2017-10-26T08:33:06.551Z,64.37
2017-10-26T08:35:32.966Z,63.93
2017-10-26T08:37:59.428Z,64.51
2017-10-26T08:40:26.661Z,63.96
2017-10-26T08:42:53.067Z,64.33
2017-10-26T08:45:19.539Z,64.50
2017-10-26T08:47:45.955Z,63.62
2017-10-26T08:50:12.501Z,63.20
2017-10-26T08:52:38.936Z,63.10
2017-10-26T08:55:05.362Z,64.51
2017-10-26T08:57:31.797Z,65.21
2017-10-26T08:59:58.777Z,64.31
2017-10-26T09:02:25.186Z,64.20
2017-10-26T09:04:51.920Z,63.51
2017-10-26T09:07:18.355Z,63.80
2017-10-26T09:09:44.858Z,63.56
2017-10-26T09:12:11.175Z,63.88
2017-10-26T09:14:37.865Z,63.51
2017-10-26T09:17:04.299Z,63.35
2017-10-26T09:19:30.767Z,63.68
2017-10-26T09:21:57.168Z,63.95
2017-10-26T09:24:23.499Z,63.58
2017-10-26T09:26:50.036Z,64.35
2017-10-26T09:29:16.573Z,63.36
2017-10-26T09:31:43.118Z,64.48
2017-10-26T09:34:09.638Z,64.54
2017-10-26T09:36:37.010Z,63.48
2017-10-26T09:39:03.647Z,64.14
2017-10-26T09:41:30.181Z,63.71
2017-10-26T09:43:56.622Z,63.87
2017-10-26T09:46:23.030Z,64.12
2017-10-26T09:48:49.486Z,63.36
2017-10-26T09:51:15.887Z,63.26
2017-10-26T09:53:42.354Z,63.25
2017-10-26T09:56:08.852Z,63.09
2017-10-26T09:58:35.707Z,63.18
2017-10-26T10:01:02.148Z,62.47
2017-10-26T10:03:29.330Z,62.20
2017-10-26T10:05:59.337Z,62.12
2017-10-26T10:08:27.626Z,63.08
2017-10-26T10:10:54.159Z,62.94
2017-10-26T10:13:20.599Z,62.34
2017-10-26T10:15:47.240Z,63.12
2017-10-26T10:18:13.698Z,62.18
2017-10-26T10:20:40.345Z,62.79
2017-10-26T10:23:06.740Z,63.85
2017-10-26T10:25:33.281Z,63.65
2017-10-26T10:27:59.711Z,62.15
2017-10-26T10:30:26.131Z,62.03
2017-10-26T10:32:52.592Z,62.94
2017-10-26T10:35:19.127Z,62.55
2017-10-26T10:37:45.964Z,62.57
2017-10-26T10:40:12.499Z,61.98
2017-10-26T10:42:38.974Z,62.55
2017-10-26T10:45:05.372Z,61.46
2017-10-26T10:47:31.803Z,60.64
2017-10-26T10:49:58.451Z,60.10
2017-10-26T10:52:24.886Z,60.11
2017-10-26T10:54:51.415Z,59.97
2017-10-26T10:57:17.824Z,57.91
2017-10-26T10:59:44.696Z,57.63
2017-10-26T11:02:11.140Z,56.40
2017-10-26T11:04:37.460Z,56.29
2017-10-26T11:07:03.909Z,55.82
2017-10-26T11:09:30.330Z,53.87
2017-10-26T11:11:56.774Z,53.45
2017-10-26T11:14:23.208Z,52.50
2017-10-26T11:16:50.461Z,52.05
2017-10-26T11:19:17.101Z,50.88
2017-10-26T11:21:43.594Z,49.17
2017-10-26T11:24:10.279Z,48.17
2017-10-26T11:26:37.121Z,47.60
2017-10-26T11:29:03.659Z,46.61
2017-10-26T11:31:30.119Z,47.23
2017-10-26T11:33:56.516Z,45.92
2017-10-26T11:36:23.377Z,45.40
2017-10-26T11:38:50.321Z,46.75
2017-10-26T11:41:16.757Z,46.19
2017-10-26T11:43:43.263Z,46.36
2017-10-26T11:46:10.302Z,45.45
2017-10-26T11:48:37.793Z,44.73
2017-10-26T11:51:04.338Z,44.63
2017-10-26T11:53:30.932Z,44.51
2017-10-26T11:55:57.411Z,43.30
2017-10-26T11:58:23.925Z,41.43
2017-10-26T12:00:50.898Z,40.98
2017-10-26T12:03:17.321Z,40.73
2017-10-26T12:05:43.763Z,39.89
2017-10-26T12:08:10.497Z,39.27
2017-10-26T12:10:36.940Z,39.01
2017-10-26T12:13:03.367Z,39.23
2017-10-26T12:15:30.101Z,39.37
2017-10-26T12:17:56.544Z,39.02
2017-10-26T12:20:22.980Z,38.97
2017-10-26T12:22:49.395Z,37.66
2017-10-26T12:25:15.883Z,39.21
2017-10-26T12:27:43.056Z,40.43
2017-10-26T12:30:09.544Z,41.17
2017-10-26T12:32:36.995Z,41.09
2017-10-26T12:35:03.957Z,39.83
2017-10-26T12:37:30.549Z,38.65
2017-10-26T12:39:57.325Z,37.51
2017-10-26T12:42:23.765Z,36.79
2017-10-26T12:44:50.193Z,36.32
2017-10-26T12:47:16.733Z,36.66
2017-10-26T12:49:44.638Z,36.36
2017-10-26T12:52:11.111Z,36.51
2017-10-26T12:54:37.852Z,35.92
2017-10-26T12:57:04.415Z,36.14
2017-10-26T12:59:30.952Z,36.30
2017-10-26T13:01:57.592Z,36.84
2017-10-26T13:04:24.035Z,37.19
2017-10-26T13:06:50.702Z,37.42
2017-10-26T13:09:17.772Z,38.21
2017-10-26T13:11:44.514Z,38.36
2017-10-26T13:14:11.051Z,38.43
2017-10-26T13:16:37.817Z,37.81
2017-10-26T13:19:04.348Z,37.55
2017-10-26T13:21:30.900Z,37.19
2017-10-26T13:23:57.412Z,36.01
2017-10-26T13:26:23.849Z,35.68
2017-10-26T13:28:50.274Z,36.41
2017-10-26T13:31:17.225Z,37.16
2017-10-26T13:33:44.475Z,37.43
2017-10-26T13:36:12.036Z,38.19
2017-10-26T13:38:38.479Z,38.86
2017-10-26T13:41:05.147Z,40.46
2017-10-26T13:43:31.553Z,41.33
2017-10-26T13:45:57.979Z,41.42
2017-10-26T13:48:24.619Z,40.99
2017-10-26T13:50:51.122Z,41.00
2017-10-26T13:53:17.592Z,39.70
2017-10-26T13:55:44.038Z,39.24
2017-10-26T13:58:10.469Z,38.09
2017-10-26T14:00:37.009Z,37.22
2017-10-26T14:03:03.434Z,36.88
2017-10-26T14:05:29.765Z,36.71
2017-10-26T14:07:56.215Z,35.94
2017-10-26T14:10:22.565Z,35.18
2017-10-26T14:12:49.104Z,34.93
2017-10-26T14:15:15.473Z,35.11
2017-10-26T14:17:42.044Z,34.82
2017-10-26T14:20:08.791Z,35.07
2017-10-26T14:22:35.432Z,35.89
2017-10-26T14:25:01.971Z,35.39
2017-10-26T14:27:28.812Z,36.25
2017-10-26T14:29:55.452Z,36.06
2017-10-26T14:32:22.191Z,37.15
2017-10-26T14:34:48.828Z,37.40
2017-10-26T14:37:15.370Z,37.34
2017-10-26T14:39:41.812Z,38.71
2017-10-26T14:42:09.460Z,40.12
2017-10-26T14:44:35.797Z,41.15
2017-10-26T14:47:02.227Z,43.38
2017-10-26T14:49:28.670Z,44.00
2017-10-26T14:51:55.211Z,44.09
2017-10-26T14:54:21.635Z,44.70
2017-10-26T14:56:48.173Z,45.39
2017-10-26T14:59:15.017Z,46.41
2017-10-26T15:01:41.562Z,47.68
2017-10-26T15:04:07.988Z,49.39
2017-10-26T15:06:34.434Z,50.47
2017-10-26T15:09:00.805Z,51.73
2017-10-26T15:11:27.257Z,54.39
2017-10-26T15:13:53.636Z,54.93
2017-10-26T15:16:20.174Z,55.45
2017-10-26T15:18:46.812Z,56.62
2017-10-26T15:21:13.245Z,57.90
2017-10-26T15:23:39.649Z,58.79
2017-10-26T15:26:06.004Z,60.43
2017-10-26T15:28:32.458Z,61.14
2017-10-26T15:30:58.847Z,61.13
2017-10-26T15:33:25.315Z,62.51
2017-10-26T15:35:51.750Z,63.01
2017-10-26T15:38:18.115Z,63.40
2017-10-26T15:40:44.620Z,63.88
2017-10-26T15:43:11.048Z,64.13
2017-10-26T15:45:37.480Z,64.79
2017-10-26T15:48:03.915Z,65.37
2017-10-26T15:50:30.453Z,65.98
2017-10-26T15:52:56.939Z,67.01
2017-10-26T15:55:23.424Z,68.15
2017-10-26T15:57:49.860Z,68.60
2017-10-26T16:00:16.294Z,69.38
2017-10-26T16:02:42.737Z,69.11
2017-10-26T16:05:09.880Z,69.11
2017-10-26T16:07:36.314Z,69.47
2017-10-26T16:10:02.757Z,70.23
2017-10-26T16:12:29.184Z,70.50
2017-10-26T16:14:55.619Z,70.71
2017-10-26T16:17:22.053Z,71.01
2017-10-26T16:19:48.488Z,71.40
2017-10-26T16:22:15.538Z,71.73
2017-10-26T16:24:41.982Z,71.40
2017-10-26T16:27:08.532Z,71.62
2017-10-26T16:29:34.950Z,71.59
2017-10-26T16:32:01.385Z,71.89
2017-10-26T16:34:27.697Z,72.38
2017-10-26T16:36:54.081Z,72.62
2017-10-26T16:39:21.400Z,72.81
2017-10-26T16:41:47.749Z,73.28
2017-10-26T16:44:14.174Z,73.65
2017-10-26T16:46:40.598Z,74.03
2017-10-26T16:49:07.037Z,74.36
2017-10-26T16:51:33.471Z,75.02
2017-10-26T16:53:59.913Z,75.36
2017-10-26T16:56:27.159Z,75.59
2017-10-26T16:58:53.602Z,75.67
2017-10-26T17:01:20.048Z,75.55
2017-10-26T17:03:46.463Z,75.78
2017-10-26T17:06:12.906Z,76.12
2017-10-26T17:08:39.333Z,76.07
2017-10-26T17:11:05.877Z,76.27
2017-10-26T17:13:33.021Z,76.23
2017-10-26T17:15:59.391Z,76.25
2017-10-26T17:18:25.789Z,76.28
2017-10-26T17:20:52.251Z,76.15
2017-10-26T17:23:18.656Z,76.50
2017-10-26T17:25:45.067Z,76.94
2017-10-26T17:28:11.509Z,77.09
2017-10-26T17:30:38.576Z,77.25
2017-10-26T17:33:05.014Z,77.56
2017-10-26T17:35:31.445Z,77.95
2017-10-26T17:37:57.911Z,77.86
2017-10-26T17:40:24.315Z,77.86
2017-10-26T17:42:50.757Z,78.02
2017-10-26T17:45:17.196Z,77.95
2017-10-26T17:47:44.344Z,78.33
2017-10-26T17:50:10.780Z,78.51
2017-10-26T17:52:37.208Z,78.58
2017-10-26T17:55:03.743Z,78.53
2017-10-26T17:57:30.180Z,78.78
2017-10-26T17:59:56.621Z,78.95
2017-10-26T18:02:23.052Z,79.26
2017-10-26T18:04:50.198Z,79.60
2017-10-26T18:07:16.642Z,79.85
2017-10-26T18:09:43.076Z,79.72
2017-10-26T18:12:09.503Z,79.50
2017-10-26T18:14:35.877Z,79.31
2017-10-26T18:17:02.372Z,79.40
2017-10-26T18:19:28.807Z,79.54
2017-10-26T18:21:56.070Z,79.67
2017-10-26T18:24:22.504Z,79.53
2017-10-26T18:26:48.929Z,80.00
2017-10-26T18:29:15.364Z,80.45
2017-10-26T18:31:42.006Z,80.70
2017-10-26T18:34:08.447Z,80.67
2017-10-26T18:36:34.846Z,80.51
2017-10-26T18:39:01.295Z,80.29
2017-10-26T18:41:27.744Z,80.39
2017-10-26T18:43:54.248Z,80.81
2017-10-26T18:46:21.338Z,80.87
2017-10-26T18:48:47.773Z,80.89
2017-10-26T18:51:14.218Z,80.89
2017-10-26T18:53:40.639Z,80.82
2017-10-26T18:56:07.040Z,80.73
2017-10-26T18:58:33.438Z,80.66
2017-10-26T19:00:59.950Z,80.57
2017-10-26T19:03:27.098Z,80.55
2017-10-26T19:05:53.533Z,80.65
2017-10-26T19:08:19.959Z,80.76
2017-10-26T19:10:46.394Z,80.87
2017-10-26T19:13:12.848Z,81.03
2017-10-26T19:15:39.373Z,81.06
2017-10-26T19:18:05.808Z,81.36
2017-10-26T19:20:33.130Z,81.35
2017-10-26T19:22:59.599Z,81.27
2017-10-26T19:25:26.026Z,81.23
2017-10-26T19:27:52.460Z,81.31
2017-10-26T19:30:18.896Z,81.34
2017-10-26T19:32:45.272Z,81.11
2017-10-26T19:35:11.773Z,81.08
2017-10-26T19:37:38.924Z,81.08
2017-10-26T19:40:05.352Z,81.52
2017-10-26T19:42:31.727Z,81.37
2017-10-26T19:44:58.231Z,81.38
2017-10-26T19:47:24.591Z,81.35
2017-10-26T19:49:51.060Z,81.48
2017-10-26T19:52:17.423Z,81.54
2017-10-26T19:54:44.676Z,81.61
2017-10-26T19:57:11.153Z,81.37
2017-10-26T19:59:37.648Z,81.37
2017-10-26T20:02:04.052Z,81.51
2017-10-26T20:04:30.519Z,81.60
2017-10-26T20:06:56.962Z,81.79
2017-10-26T20:09:23.387Z,81.88
2017-10-26T20:11:50.650Z,81.92
2017-10-26T20:14:17.048Z,81.82
2017-10-26T20:16:43.522Z,81.73
2017-10-26T20:19:09.949Z,81.78
2017-10-26T20:21:36.323Z,81.83
2017-10-26T20:24:02.823Z,81.49
2017-10-26T20:26:29.260Z,81.45
2017-10-26T20:28:56.401Z,81.31
2017-10-26T20:31:22.844Z,82.21
2017-10-26T20:33:49.279Z,82.69
2017-10-26T20:36:15.816Z,82.29
2017-10-26T20:38:42.244Z,82.56
2017-10-26T20:41:08.677Z,82.89
2017-10-26T20:43:35.080Z,82.61
2017-10-26T20:46:02.160Z,82.95
2017-10-26T20:48:28.596Z,83.71
2017-10-26T20:50:55.051Z,83.96
2017-10-26T20:53:21.465Z,83.94
2017-10-26T20:55:47.899Z,83.73
2017-10-26T20:58:14.335Z,83.47
2017-10-26T21:00:40.708Z,83.29
2017-10-26T21:03:07.929Z,83.48
2017-10-26T21:05:34.355Z,83.57
2017-10-26T21:08:00.799Z,83.44
2017-10-26T21:10:27.226Z,83.20
2017-10-26T21:12:53.668Z,82.93
2017-10-26T21:15:20.094Z,82.78
2017-10-26T21:17:46.528Z,82.67
2017-10-26T21:20:13.685Z,82.18
2017-10-26T21:22:40.123Z,81.71
2017-10-26T21:25:06.550Z,81.76
2017-10-26T21:27:32.984Z,82.02
2017-10-26T21:29:59.418Z,82.11
2017-10-26T21:32:25.823Z,82.16
2017-10-26T21:34:52.308Z,82.58
2017-10-26T21:37:19.449Z,82.73
2017-10-26T21:39:45.875Z,82.93
2017-10-26T21:42:12.421Z,82.78
2017-10-26T21:44:38.815Z,82.62
2017-10-26T21:47:05.291Z,82.45
2017-10-26T21:49:31.725Z,82.36
2017-10-26T21:51:58.259Z,82.29
2017-10-26T21:54:25.304Z,82.47
2017-10-26T21:56:51.746Z,82.78
2017-10-26T21:59:18.283Z,82.84
2017-10-26T22:01:44.624Z,82.94
2017-10-26T22:04:11.150Z,82.80
2017-10-26T22:06:37.587Z,82.47
2017-10-26T22:09:03.911Z,82.70
2017-10-26T22:11:31.174Z,82.86
2017-10-26T22:13:57.599Z,82.92
2017-10-26T22:16:24.028Z,83.06
2017-10-26T22:18:50.470Z,82.94
2017-10-26T22:21:16.912Z,82.41
2017-10-26T22:23:43.347Z,82.55
2017-10-26T22:26:09.773Z,82.91
2017-10-26T22:28:37.037Z,83.52
2017-10-26T22:31:03.461Z,83.87
2017-10-26T22:33:29.911Z,83.46
2017-10-26T22:35:56.434Z,82.80
2017-10-26T22:38:22.869Z,82.85
2017-10-26T22:40:49.304Z,83.22
2017-10-26T22:43:15.738Z,83.58
2017-10-26T22:45:43.003Z,83.93
2017-10-26T22:48:09.427Z,84.32
2017-10-26T22:50:35.861Z,84.54
2017-10-26T22:53:02.296Z,84.62
2017-10-26T22:55:28.627Z,84.40
2017-10-26T22:57:55.027Z,84.05
2017-10-26T23:00:21.506Z,83.52
2017-10-26T23:02:48.649Z,82.97
2017-10-26T23:05:15.056Z,82.86
2017-10-26T23:07:41.528Z,83.53
2017-10-26T23:10:07.954Z,83.53
2017-10-26T23:12:34.490Z,83.25
2017-10-26T23:15:00.935Z,83.98
2017-10-26T23:17:27.359Z,83.82
2017-10-26T23:19:54.600Z,83.70
2017-10-26T23:22:21.019Z,83.29
2017-10-26T23:24:47.497Z,83.12
2017-10-26T23:27:13.928Z,83.09
2017-10-26T23:29:40.324Z,82.99
2017-10-26T23:32:06.762Z,82.37
2017-10-26T23:34:33.222Z,82.32
2017-10-26T23:37:00.311Z,82.32
2017-10-26T23:39:26.748Z,82.41
2017-10-26T23:41:53.074Z,82.43
2017-10-26T23:44:19.548Z,82.43
2017-10-26T23:46:45.991Z,82.59
2017-10-26T23:49:12.432Z,82.82
2017-10-26T23:51:38.891Z,82.92
2017-10-26T23:54:06.046Z,82.89
2017-10-26T23:56:32.569Z,82.74
2017-10-26T23:58:59.012Z,82.35
